Sawyer, North Dakota
Current Conditions -  °F | °C
As of 4:54 PM on Wednesday 22 Oct 2014 (Local Time) from KMOT Reporting Station
Overcast Overcast  
Wind Chill: 62°   Ceiling: 5000
Heat Index: 62°   Visibility: 10mi
Dew Point: 40°   Wind: 16mph
Humidity: 44%   Direction: 260°W
Pressure: 29.78"   Gusts: 25mph
Location:  48.09°N, 101.05°W
Report Text: KMOT 222154Z 26014G22KT 10SM BKN050 OVC055 17/04 A2978 RMK AO2 PK WND 24027/2057 SLP086 T01670044
Loading
Personal Weather Stations






























Interactive Weather Map
Tropical Storm Tracking
New forecast layout! Learn more

10-Day Weather Forecast

Advertisements
Track Severe Weather on mobile